Aérodrome :
LOGIN :

S'inscrire | Disclaimer

   EN    FR    IT 

 










Légende :    VFR   VFR Marginal   IFR   IFR Intensif   IFR Très Intensif
Visi : 
Plafond : 
>= 8 km
>= 3000ft
5 à 8 km
1000 à 3000 ft
1500m à 5 km
500 à 1000 ft
800 à 1500m
200 à 500 ft
< 800m
< 200 ft
Symboles :   Orages  Brouillard  Fortes neiges  Fortes précipitations  Vent > 20 kt
SIGMETs :   Divers  Orages  Givrage  Turbulence  Onde Orograph.  Cendres Volcan.







- Altitude de l'aérodrome : 1585 ft
- Code IATA : SIR


LSGS - Sion

DERNIER METAR :
  • 250620Z 09005KT 9999 BKN100 13/04 Q1010

METARs EXPIRÉS :
  • 250550Z 05004KT 020V080 9999 BKN100 12/04 Q1010
  • 250520Z 10004KT 350V150 9999 BKN095 11/03 Q1010
  • 250450Z VRB03KT 9999 BKN095 12/03 Q1010
  • 250420Z AUTO VRB01KT 9000 FEW038 11/03 Q1010
  • 250350Z AUTO VRB01KT 9000 BKN026 12/03 Q1010

TAF TAF LSGS
Valide du 25 à 06h jusqu'au 25 à 15h UTC


250525Z 2506/2515 VRB03KT 9999 SCT080 BKN120
PROB40
TEMPO 2512/2515 25015G25KT SHRA
Pas de NOTAMs connus pour ce terrain.



MET'MAP, la Météo Aéronautique d'un coup d'oeil ! - Copyright ORBIFLY Décembre 2007 - Disclaimer

ORBIFLY MET'MAP TEAM :

Programmation & Développement : Alexandra Zaïnal
Conception & Développement : Baudouin d'Aumeries
Co-Programmation & Développement : Marc-Olivier Méhu
Soutien technique & logistique : Manuel Goepfert

Contact : metmap@orbifly.com




SOURCES & CREDITS :

   NOAA